Time;durP1;ratioP1;P1;durP2;ratioP2;P2;SDS_P1;SDS_P2;PMS_P1;PMS_P2;Temp;Humidity;BMP_temperature;BMP_pressure;BME280_temperature;BME280_humidity;BME280_pressure;Samples;Min_cycle;Max_cycle;Signal;HPM_P1;HPM_P2
2023/12/30 00:01:40;;;;;;;10.63;1.70;;;;;;;;;;5022920;28;20545;-76
2023/12/30 00:04:06;;;;;;;10.40;1.83;;;;;;;;;;5024251;28;20065;-76
2023/12/30 00:06:31;;;;;;;11.45;2.08;;;;;;;;;;5023200;28;20071;-76
2023/12/30 00:08:57;;;;;;;6.22;1.33;;;;;;;;;;5022896;28;20145;-76
2023/12/30 00:11:22;;;;;;;14.30;2.30;;;;;;;;;;5023992;28;20183;-76
2023/12/30 00:13:47;;;;;;;9.35;1.92;;;;;;;;;;5023941;28;20068;-76
2023/12/30 00:16:13;;;;;;;7.65;2.03;;;;;;;;;;5023400;28;20037;-76
2023/12/30 00:18:39;;;;;;;8.75;2.55;;;;;;;;;;5024385;28;20029;-76
2023/12/30 00:21:04;;;;;;;10.93;1.85;;;;;;;;;;5029210;28;20487;-76
2023/12/30 00:23:30;;;;;;;14.32;2.10;;;;;;;;;;5046568;28;20063;-76
2023/12/30 00:25:55;;;;;;;12.43;1.90;;;;;;;;;;5045931;28;20063;-76
2023/12/30 00:28:24;;;;;;;10.55;2.00;;;;;;;;;;5046831;28;20068;-76
2023/12/30 00:30:49;;;;;;;11.55;2.00;;;;;;;;;;5047942;28;20056;-76
2023/12/30 00:33:14;;;;;;;13.82;2.00;;;;;;;;;;5046422;28;20382;-76
2023/12/30 00:35:40;;;;;;;16.38;2.38;;;;;;;;;;5048419;28;20115;-76
2023/12/30 00:38:06;;;;;;;12.90;2.05;;;;;;;;;;5048565;28;20052;-76
2023/12/30 00:40:31;;;;;;;20.52;2.10;;;;;;;;;;5056648;28;20040;-76
2023/12/30 00:42:57;;;;;;;13.98;2.97;;;;;;;;;;5060535;28;20033;-76
2023/12/30 00:45:22;;;;;;;10.10;1.83;;;;;;;;;;5047551;28;20032;-76
2023/12/30 00:47:47;;;;;;;16.67;2.40;;;;;;;;;;5048611;28;20093;-76
2023/12/30 00:50:13;;;;;;;9.25;2.13;;;;;;;;;;5046400;28;20044;-76
2023/12/30 00:52:38;;;;;;;12.57;1.85;;;;;;;;;;5046440;28;20048;-76
2023/12/30 00:55:04;;;;;;;10.13;1.92;;;;;;;;;;5047918;28;20037;-76
2023/12/30 00:57:29;;;;;;;14.02;2.53;;;;;;;;;;5035162;28;20051;-76
2023/12/30 00:59:55;;;;;;;6.07;2.20;;;;;;;;;;5047805;28;20872;-76
2023/12/30 01:02:20;;;;;;;9.63;1.75;;;;;;;;;;5044495;28;20044;-76
2023/12/30 01:04:45;;;;;;;11.93;2.30;;;;;;;;;;5045922;28;20124;-76
2023/12/30 01:07:11;;;;;;;18.52;2.50;;;;;;;;;;5047046;28;20442;-75
2023/12/30 01:09:36;;;;;;;8.88;1.98;;;;;;;;;;5045887;28;20059;-76
2023/12/30 01:12:01;;;;;;;15.85;2.55;;;;;;;;;;5046140;28;20025;-76
2023/12/30 01:14:27;;;;;;;11.93;2.35;;;;;;;;;;5045344;28;20040;-75
2023/12/30 01:16:52;;;;;;;14.40;2.00;;;;;;;;;;5045324;28;20102;-76
2023/12/30 01:19:17;;;;;;;12.18;2.45;;;;;;;;;;5046259;28;20481;-76
2023/12/30 01:21:43;;;;;;;16.55;2.05;;;;;;;;;;5041903;28;20040;-75
2023/12/30 01:24:10;;;;;;;9.65;2.10;;;;;;;;;;5041556;28;20556;-75
2023/12/30 01:26:37;;;;;;;14.35;2.10;;;;;;;;;;5039545;28;20071;-76
2023/12/30 01:29:03;;;;;;;14.63;2.20;;;;;;;;;;5027808;28;20038;-76
2023/12/30 01:31:28;;;;;;;16.20;2.55;;;;;;;;;;5045249;28;20037;-75
2023/12/30 01:33:53;;;;;;;8.82;2.17;;;;;;;;;;5044528;28;20732;-76
2023/12/30 01:36:19;;;;;;;10.38;1.77;;;;;;;;;;5046431;28;20049;-75
2023/12/30 01:38:44;;;;;;;16.58;1.98;;;;;;;;;;5046210;28;20110;-77
2023/12/30 01:41:10;;;;;;;5.93;2.35;;;;;;;;;;5045653;28;20587;-76
2023/12/30 01:43:35;;;;;;;14.35;2.72;;;;;;;;;;5045604;28;20061;-76
2023/12/30 01:46:03;;;;;;;10.32;1.85;;;;;;;;;;5047123;28;20040;-76
2023/12/30 01:48:30;;;;;;;13.57;1.73;;;;;;;;;;5046764;28;20104;-76
2023/12/30 01:50:58;;;;;;;8.38;1.33;;;;;;;;;;5045707;28;20104;-76
2023/12/30 01:53:26;;;;;;;5.65;1.85;;;;;;;;;;5043272;28;20623;-75
2023/12/30 01:55:51;;;;;;;7.25;1.65;;;;;;;;;;5027026;28;20029;-76
2023/12/30 01:58:21;;;;;;;10.95;1.75;;;;;;;;;;5031420;28;20029;-76
2023/12/30 02:00:51;;;;;;;9.82;1.73;;;;;;;;;;5041434;28;20060;-76
2023/12/30 02:03:17;;;;;;;8.48;1.50;;;;;;;;;;5038234;28;20453;-76
2023/12/30 02:05:43;;;;;;;11.35;2.00;;;;;;;;;;5042095;28;20044;-76
2023/12/30 02:08:09;;;;;;;10.07;1.77;;;;;;;;;;5046287;28;20457;-77
2023/12/30 02:10:34;;;;;;;9.00;2.00;;;;;;;;;;5045784;28;20032;-76
2023/12/30 02:13:00;;;;;;;12.35;1.67;;;;;;;;;;5045168;28;20402;-76
2023/12/30 02:15:25;;;;;;;6.07;1.95;;;;;;;;;;5044562;28;20028;-76
2023/12/30 02:17:51;;;;;;;6.40;1.73;;;;;;;;;;5044184;28;20486;-75
2023/12/30 02:20:17;;;;;;;10.20;1.95;;;;;;;;;;5045009;28;20087;-76
2023/12/30 02:22:47;;;;;;;14.77;2.03;;;;;;;;;;5044855;28;20521;-76
2023/12/30 02:25:13;;;;;;;8.57;1.60;;;;;;;;;;5044896;28;20040;-76
2023/12/30 02:27:38;;;;;;;8.32;2.90;;;;;;;;;;5025375;28;20029;-76
2023/12/30 02:30:04;;;;;;;10.50;1.70;;;;;;;;;;5042982;28;20040;-76
2023/12/30 02:32:30;;;;;;;9.48;1.85;;;;;;;;;;5044453;28;20037;-76
2023/12/30 02:34:55;;;;;;;8.77;1.88;;;;;;;;;;5040226;28;20052;-76
2023/12/30 02:37:20;;;;;;;14.45;2.72;;;;;;;;;;5028434;28;20130;-76
2023/12/30 02:39:46;;;;;;;8.63;1.95;;;;;;;;;;5044620;28;20037;-75
2023/12/30 02:42:11;;;;;;;9.40;1.73;;;;;;;;;;5045140;28;20111;-76
2023/12/30 02:44:37;;;;;;;7.90;2.05;;;;;;;;;;5043648;28;20033;-76
2023/12/30 02:47:02;;;;;;;11.02;2.42;;;;;;;;;;5044098;28;20025;-76
2023/12/30 02:49:28;;;;;;;8.05;1.98;;;;;;;;;;5043655;28;20213;-76
2023/12/30 02:51:54;;;;;;;9.23;2.13;;;;;;;;;;5043189;28;20033;-76
2023/12/30 02:54:19;;;;;;;12.70;1.80;;;;;;;;;;5044702;28;20051;-76
2023/12/30 02:56:45;;;;;;;15.48;2.20;;;;;;;;;;5043683;28;20028;-76
2023/12/30 02:59:10;;;;;;;13.93;2.40;;;;;;;;;;5042440;28;20053;-76
2023/12/30 03:01:37;;;;;;;8.60;2.30;;;;;;;;;;5043562;28;20044;-76
2023/12/30 03:04:02;;;;;;;10.20;2.03;;;;;;;;;;5043695;28;20021;-76
2023/12/30 03:06:28;;;;;;;15.10;2.30;;;;;;;;;;5037928;28;20040;-76
2023/12/30 03:08:53;;;;;;;20.08;2.95;;;;;;;;;;5043820;28;20021;-76
2023/12/30 03:11:19;;;;;;;5.07;1.88;;;;;;;;;;5043802;28;20033;-76
2023/12/30 03:13:45;;;;;;;18.00;2.13;;;;;;;;;;5042404;28;20045;-76
2023/12/30 03:16:11;;;;;;;12.82;2.38;;;;;;;;;;5046295;28;20040;-76
2023/12/30 03:18:37;;;;;;;12.93;2.15;;;;;;;;;;5054092;28;20051;-76
2023/12/30 03:21:07;;;;;;;17.80;2.50;;;;;;;;;;5055554;28;20032;-76
2023/12/30 03:23:32;;;;;;;20.00;2.25;;;;;;;;;;5041687;28;20063;-76
2023/12/30 03:25:58;;;;;;;10.02;1.98;;;;;;;;;;5043718;28;20091;-76
2023/12/30 03:28:24;;;;;;;12.85;1.95;;;;;;;;;;5042791;28;20032;-76
2023/12/30 03:30:49;;;;;;;13.70;1.83;;;;;;;;;;5042978;28;20144;-76
2023/12/30 03:33:14;;;;;;;10.52;2.05;;;;;;;;;;5043422;28;20025;-75
2023/12/30 03:35:40;;;;;;;14.35;2.72;;;;;;;;;;5040951;28;20532;-76
2023/12/30 03:38:05;;;;;;;16.80;2.15;;;;;;;;;;5041924;28;20468;-76
2023/12/30 03:40:30;;;;;;;13.95;2.08;;;;;;;;;;5042326;28;20124;-76
2023/12/30 03:42:56;;;;;;;17.45;2.17;;;;;;;;;;5042752;28;20052;-76
2023/12/30 03:45:21;;;;;;;13.57;1.95;;;;;;;;;;5043464;28;20669;-76
2023/12/30 03:47:47;;;;;;;14.60;2.05;;;;;;;;;;5041740;28;20090;-76
2023/12/30 03:50:13;;;;;;;18.17;2.60;;;;;;;;;;5041310;28;20035;-76
2023/12/30 03:52:38;;;;;;;10.98;2.65;;;;;;;;;;5042946;28;20485;-76
2023/12/30 03:55:04;;;;;;;10.45;3.28;;;;;;;;;;5042529;28;20505;-76
2023/12/30 03:57:29;;;;;;;15.23;3.30;;;;;;;;;;5041258;28;20805;-76
2023/12/30 03:59:54;;;;;;;12.35;2.88;;;;;;;;;;5043699;28;20021;-76
2023/12/30 04:02:21;;;;;;;11.73;2.85;;;;;;;;;;5042746;28;20036;-76
2023/12/30 04:04:49;;;;;;;15.52;3.42;;;;;;;;;;5041250;28;20040;-76
2023/12/30 04:07:15;;;;;;;11.93;2.85;;;;;;;;;;5041012;28;20124;-75
2023/12/30 04:09:40;;;;;;;19.05;2.90;;;;;;;;;;5041372;28;20136;-76
2023/12/30 04:12:06;;;;;;;8.13;2.42;;;;;;;;;;5042930;28;20106;-76
2023/12/30 04:14:31;;;;;;;12.45;2.65;;;;;;;;;;5041044;28;20784;-76
2023/12/30 04:16:57;;;;;;;8.52;2.42;;;;;;;;;;5041510;28;20090;-76
2023/12/30 04:19:24;;;;;;;11.43;2.60;;;;;;;;;;5042436;28;20037;-76
2023/12/30 04:21:49;;;;;;;10.95;2.33;;;;;;;;;;5043133;28;20514;-76
2023/12/30 04:24:14;;;;;;;12.52;2.88;;;;;;;;;;5042084;28;20044;-76
2023/12/30 04:26:40;;;;;;;9.77;2.03;;;;;;;;;;5041483;28;20091;-76
2023/12/30 04:29:05;;;;;;;17.10;2.85;;;;;;;;;;5041381;28;20472;-76
2023/12/30 04:31:30;;;;;;;9.70;2.85;;;;;;;;;;5041942;28;20116;-76
2023/12/30 04:33:56;;;;;;;13.65;3.08;;;;;;;;;;5044508;28;20501;-76
2023/12/30 04:36:21;;;;;;;15.57;2.75;;;;;;;;;;5047922;28;20483;-75
2023/12/30 04:38:46;;;;;;;10.68;2.28;;;;;;;;;;5059351;28;20032;-75
2023/12/30 04:41:12;;;;;;;15.43;2.78;;;;;;;;;;5056510;28;20041;-76
2023/12/30 04:43:37;;;;;;;11.52;2.70;;;;;;;;;;5045192;28;20131;-75
2023/12/30 04:46:03;;;;;;;21.80;2.50;;;;;;;;;;5043637;28;20040;-76
2023/12/30 04:48:28;;;;;;;11.27;2.03;;;;;;;;;;5042384;28;20037;-75
2023/12/30 04:50:53;;;;;;;14.10;2.60;;;;;;;;;;5043110;28;20029;-76
2023/12/30 04:53:19;;;;;;;8.57;2.15;;;;;;;;;;5042367;28;20040;-76
2023/12/30 04:55:44;;;;;;;12.77;2.80;;;;;;;;;;5042428;28;20506;-76
2023/12/30 04:58:10;;;;;;;11.48;2.10;;;;;;;;;;5042114;28;20045;-76
2023/12/30 05:00:35;;;;;;;8.70;2.45;;;;;;;;;;5042697;28;20040;-76
2023/12/30 05:03:01;;;;;;;10.10;2.58;;;;;;;;;;5041178;28;20059;-75
2023/12/30 05:05:26;;;;;;;14.00;3.15;;;;;;;;;;5041385;28;20045;-76
2023/12/30 05:07:51;;;;;;;14.27;2.67;;;;;;;;;;5043711;28;20033;-75
2023/12/30 05:10:17;;;;;;;13.82;2.83;;;;;;;;;;5045117;28;20063;-76
2023/12/30 05:12:42;;;;;;;19.85;2.97;;;;;;;;;;5046135;28;20049;-75
2023/12/30 05:15:10;;;;;;;15.43;3.28;;;;;;;;;;5045902;28;20464;-76
2023/12/30 05:17:35;;;;;;;15.55;3.30;;;;;;;;;;5045731;28;20144;-76
2023/12/30 05:20:01;;;;;;;17.00;3.40;;;;;;;;;;5045795;28;20127;-75
2023/12/30 05:22:26;;;;;;;13.90;3.13;;;;;;;;;;5045438;28;20480;-76
2023/12/30 05:24:51;;;;;;;18.50;3.47;;;;;;;;;;5043842;28;20110;-76
2023/12/30 05:27:17;;;;;;;20.77;3.58;;;;;;;;;;5046472;28;20025;-76
2023/12/30 05:29:42;;;;;;;11.57;2.83;;;;;;;;;;5043439;28;20124;-75
2023/12/30 05:32:07;;;;;;;10.27;2.60;;;;;;;;;;5045242;28;20083;-76
2023/12/30 05:34:33;;;;;;;14.13;3.70;;;;;;;;;;5032482;28;20049;-75
2023/12/30 05:36:58;;;;;;;13.77;3.30;;;;;;;;;;5032913;28;20052;-75
2023/12/30 05:39:23;;;;;;;12.35;3.10;;;;;;;;;;5045027;28;20029;-76
2023/12/30 05:41:49;;;;;;;11.93;3.83;;;;;;;;;;5044481;28;20029;-76
2023/12/30 05:44:14;;;;;;;10.43;3.45;;;;;;;;;;5045437;28;20127;-76
2023/12/30 05:46:39;;;;;;;16.63;3.80;;;;;;;;;;5045237;28;20072;-76
2023/12/30 05:49:05;;;;;;;8.63;2.65;;;;;;;;;;5043811;28;20136;-76
2023/12/30 05:51:30;;;;;;;18.30;3.97;;;;;;;;;;5045653;28;20071;-75
2023/12/30 05:53:56;;;;;;;15.55;3.13;;;;;;;;;;5046597;28;20032;-76
2023/12/30 05:56:22;;;;;;;14.93;2.95;;;;;;;;;;5058767;28;20060;-76
2023/12/30 05:58:48;;;;;;;9.90;3.10;;;;;;;;;;5040955;28;20044;-76
2023/12/30 06:01:13;;;;;;;15.30;3.00;;;;;;;;;;5023080;28;20057;-77
2023/12/30 06:03:39;;;;;;;16.00;3.45;;;;;;;;;;5034726;28;20061;-76
2023/12/30 06:06:04;;;;;;;12.98;2.97;;;;;;;;;;5045472;28;20067;-75
2023/12/30 06:08:32;;;;;;;21.83;5.03;;;;;;;;;;5041260;28;20041;-76
2023/12/30 06:10:58;;;;;;;16.17;3.05;;;;;;;;;;5026130;28;20558;-75
2023/12/30 06:13:23;;;;;;;15.80;3.40;;;;;;;;;;5048742;28;20094;-76
2023/12/30 06:15:50;;;;;;;15.20;3.53;;;;;;;;;;5045694;28;20112;-75
2023/12/30 06:18:16;;;;;;;12.25;3.05;;;;;;;;;;5044932;28;20037;-76
2023/12/30 06:20:46;;;;;;;14.43;4.10;;;;;;;;;;5045329;28;20045;-76
2023/12/30 06:23:12;;;;;;;13.82;2.97;;;;;;;;;;5045718;28;20056;-76
2023/12/30 06:25:37;;;;;;;10.13;3.28;;;;;;;;;;5045776;28;20033;-76
2023/12/30 06:28:03;;;;;;;14.52;3.90;;;;;;;;;;5045086;28;20047;-76
2023/12/30 06:30:29;;;;;;;15.65;4.53;;;;;;;;;;5045846;28;20509;-76
2023/12/30 06:32:54;;;;;;;13.35;3.80;;;;;;;;;;5035873;28;20170;-76
2023/12/30 06:35:19;;;;;;;15.45;3.90;;;;;;;;;;5044274;28;20402;-76
2023/12/30 06:37:45;;;;;;;19.80;5.45;;;;;;;;;;5033805;28;20072;-76
2023/12/30 06:40:10;;;;;;;18.70;3.97;;;;;;;;;;5044963;28;20037;-76
2023/12/30 06:42:36;;;;;;;18.15;3.65;;;;;;;;;;5045339;28;20553;-77
2023/12/30 06:45:01;;;;;;;21.02;5.45;;;;;;;;;;5045646;28;20504;-76
2023/12/30 06:47:26;;;;;;;15.15;3.88;;;;;;;;;;5044964;28;20398;-76
2023/12/30 06:49:52;;;;;;;14.35;4.00;;;;;;;;;;5045696;28;20051;-76
2023/12/30 06:52:20;;;;;;;17.83;3.90;;;;;;;;;;5045216;28;20457;-76
2023/12/30 06:54:45;;;;;;;15.60;3.90;;;;;;;;;;5045429;28;20040;-76
2023/12/30 06:57:11;;;;;;;18.63;4.05;;;;;;;;;;5044713;28;20028;-76
2023/12/30 06:59:36;;;;;;;13.50;3.60;;;;;;;;;;5044969;28;20043;-76
2023/12/30 07:02:01;;;;;;;9.15;3.65;;;;;;;;;;5043564;28;20047;-77
2023/12/30 07:04:27;;;;;;;18.02;3.53;;;;;;;;;;5045123;28;20041;-76
2023/12/30 07:06:53;;;;;;;18.40;4.40;;;;;;;;;;5045337;28;20033;-76
2023/12/30 07:09:18;;;;;;;14.35;4.03;;;;;;;;;;5044883;28;20045;-76
2023/12/30 07:11:44;;;;;;;14.73;4.22;;;;;;;;;;5044078;28;20041;-76
2023/12/30 07:14:09;;;;;;;16.27;4.45;;;;;;;;;;5050550;28;20488;-76
2023/12/30 07:16:37;;;;;;;16.77;3.45;;;;;;;;;;5060402;28;20063;-76
2023/12/30 07:19:03;;;;;;;7.07;3.17;;;;;;;;;;5053555;28;20132;-76
2023/12/30 07:21:28;;;;;;;15.82;3.97;;;;;;;;;;5047482;28;20119;-76
2023/12/30 07:23:54;;;;;;;16.50;3.28;;;;;;;;;;5044521;28;20059;-76
2023/12/30 07:26:19;;;;;;;13.23;3.75;;;;;;;;;;5033086;28;20123;-77
2023/12/30 07:28:45;;;;;;;11.40;3.35;;;;;;;;;;5040969;28;20128;-76
2023/12/30 07:31:10;;;;;;;12.35;3.15;;;;;;;;;;5043403;28;20822;-76
2023/12/30 07:33:35;;;;;;;15.48;3.28;;;;;;;;;;5035121;28;20051;-75
2023/12/30 07:36:03;;;;;;;13.38;2.97;;;;;;;;;;5041773;28;20079;-76
2023/12/30 07:38:30;;;;;;;11.70;3.40;;;;;;;;;;5041345;28;20068;-75
2023/12/30 07:40:56;;;;;;;15.18;2.70;;;;;;;;;;5041383;28;20044;-76
2023/12/30 07:43:21;;;;;;;9.65;2.75;;;;;;;;;;5032412;28;20047;-76
2023/12/30 07:45:47;;;;;;;10.40;3.08;;;;;;;;;;5034246;28;20082;-76
2023/12/30 07:48:12;;;;;;;11.32;2.97;;;;;;;;;;5038570;28;20029;-76
2023/12/30 07:50:37;;;;;;;17.42;3.45;;;;;;;;;;5023779;28;20041;-77
2023/12/30 07:53:03;;;;;;;16.17;3.40;;;;;;;;;;5022213;28;20045;-76
2023/12/30 07:55:29;;;;;;;10.43;2.50;;;;;;;;;;5024027;28;20120;-76
2023/12/30 07:57:54;;;;;;;6.65;2.55;;;;;;;;;;5034606;28;20112;-76
2023/12/30 08:00:20;;;;;;;14.43;3.15;;;;;;;;;;5041023;28;20037;-77
2023/12/30 08:02:46;;;;;;;6.35;2.65;;;;;;;;;;5026952;28;20457;-75
2023/12/30 08:05:11;;;;;;;6.25;2.80;;;;;;;;;;5040302;28;20421;-75
2023/12/30 08:07:36;;;;;;;13.45;2.92;;;;;;;;;;5040563;28;20040;-76
2023/12/30 08:10:02;;;;;;;18.73;4.03;;;;;;;;;;5042236;28;20047;-76
2023/12/30 08:12:27;;;;;;;12.63;2.83;;;;;;;;;;5042224;28;20032;-76
2023/12/30 08:14:53;;;;;;;10.30;2.80;;;;;;;;;;5038886;28;20036;-76
2023/12/30 08:17:18;;;;;;;15.57;2.90;;;;;;;;;;5022069;28;20045;-76
2023/12/30 08:19:43;;;;;;;13.55;2.88;;;;;;;;;;5028633;28;20131;-76
2023/12/30 08:22:09;;;;;;;12.90;2.60;;;;;;;;;;5039776;28;20149;-77
2023/12/30 08:24:34;;;;;;;9.95;2.70;;;;;;;;;;5042424;28;20028;-77
2023/12/30 08:26:59;;;;;;;9.80;2.78;;;;;;;;;;5040476;28;20036;-77
2023/12/30 08:29:25;;;;;;;15.23;2.78;;;;;;;;;;5040352;28;20033;-77
2023/12/30 08:31:50;;;;;;;17.23;2.88;;;;;;;;;;5025829;28;20072;-77
2023/12/30 08:34:15;;;;;;;10.68;2.50;;;;;;;;;;5042098;28;20101;-77
2023/12/30 08:36:42;;;;;;;8.80;2.45;;;;;;;;;;5053081;28;20109;-77
2023/12/30 08:39:08;;;;;;;20.90;3.33;;;;;;;;;;5040447;28;20070;-77
2023/12/30 08:41:33;;;;;;;8.77;3.13;;;;;;;;;;5040930;28;20044;-78
2023/12/30 08:44:00;;;;;;;13.88;3.67;;;;;;;;;;5043742;28;20048;-78
2023/12/30 08:46:25;;;;;;;13.07;4.07;;;;;;;;;;5042677;28;20037;-78
2023/12/30 08:48:50;;;;;;;8.85;3.53;;;;;;;;;;5021784;28;20048;-78
2023/12/30 08:51:16;;;;;;;12.43;3.78;;;;;;;;;;5022948;28;20037;-78
2023/12/30 08:53:41;;;;;;;14.20;3.22;;;;;;;;;;5021881;28;20056;-78
2023/12/30 08:56:07;;;;;;;22.10;5.75;;;;;;;;;;5028671;28;20066;-77
2023/12/30 08:58:32;;;;;;;33.38;9.88;;;;;;;;;;5037551;28;20152;-77
2023/12/30 09:00:57;;;;;;;17.90;4.63;;;;;;;;;;5037350;28;20048;-77
2023/12/30 09:03:23;;;;;;;15.07;4.28;;;;;;;;;;5025249;28;20131;-76
2023/12/30 09:05:48;;;;;;;17.80;3.65;;;;;;;;;;5023713;28;20026;-75
2023/12/30 09:08:14;;;;;;;13.35;3.85;;;;;;;;;;5023356;28;20171;-75
2023/12/30 09:10:39;;;;;;;11.95;2.72;;;;;;;;;;5023409;28;20055;-75
2023/12/30 09:13:04;;;;;;;17.08;3.85;;;;;;;;;;5021469;28;20053;-75
2023/12/30 09:15:30;;;;;;;9.48;3.55;;;;;;;;;;5023381;28;20948;-75
2023/12/30 09:17:57;;;;;;;9.90;3.55;;;;;;;;;;5023152;28;20033;-76
2023/12/30 09:20:22;;;;;;;12.23;3.95;;;;;;;;;;5022502;28;20044;-76
2023/12/30 09:22:48;;;;;;;12.07;2.92;;;;;;;;;;5025221;28;20021;-75
2023/12/30 09:25:13;;;;;;;15.93;4.60;;;;;;;;;;5036596;28;20119;-76
2023/12/30 09:27:39;;;;;;;11.55;3.47;;;;;;;;;;5028088;28;20215;-74
2023/12/30 09:30:05;;;;;;;11.60;3.67;;;;;;;;;;5027183;28;20060;-75
2023/12/30 09:32:30;;;;;;;19.90;4.22;;;;;;;;;;5048190;28;20206;-75
2023/12/30 09:34:56;;;;;;;14.45;3.75;;;;;;;;;;5039914;28;20514;-75
2023/12/30 09:37:22;;;;;;;14.18;4.68;;;;;;;;;;5040438;28;20529;-75
2023/12/30 09:39:47;;;;;;;13.88;3.47;;;;;;;;;;5039352;28;20029;-75
2023/12/30 09:42:12;;;;;;;16.60;4.13;;;;;;;;;;5030834;28;20493;-76
2023/12/30 09:44:39;;;;;;;8.02;3.30;;;;;;;;;;5030099;28;20033;-75
2023/12/30 09:47:11;;;;;;;15.60;3.67;;;;;;;;;;5034138;28;20048;-76
2023/12/30 09:49:37;;;;;;;14.27;4.10;;;;;;;;;;5044324;28;20047;-77
2023/12/30 09:52:05;;;;;;;16.77;4.13;;;;;;;;;;5034927;28;20026;-77
2023/12/30 09:54:30;;;;;;;10.93;3.10;;;;;;;;;;5041336;28;20037;-77
2023/12/30 09:56:57;;;;;;;17.45;3.80;;;;;;;;;;5033699;28;20025;-77
2023/12/30 09:59:23;;;;;;;12.98;3.20;;;;;;;;;;5026505;28;20493;-77
2023/12/30 10:01:49;;;;;;;24.40;4.07;;;;;;;;;;5023910;28;20026;-77
2023/12/30 10:04:15;;;;;;;17.48;4.88;;;;;;;;;;5021244;28;20044;-77
2023/12/30 10:06:42;;;;;;;9.30;2.50;;;;;;;;;;5027213;28;20041;-77
2023/12/30 10:09:08;;;;;;;11.95;2.55;;;;;;;;;;5056127;28;20202;-77
2023/12/30 10:11:37;;;;;;;15.68;3.60;;;;;;;;;;5060273;28;20600;-77
2023/12/30 10:14:02;;;;;;;10.98;2.95;;;;;;;;;;5062219;28;20175;-77
2023/12/30 10:16:29;;;;;;;13.88;3.42;;;;;;;;;;5061729;28;20119;-77
2023/12/30 10:18:56;;;;;;;21.25;4.30;;;;;;;;;;5060379;28;20028;-77
2023/12/30 10:21:21;;;;;;;16.52;5.78;;;;;;;;;;5059952;28;20054;-77
2023/12/30 10:23:51;;;;;;;18.40;4.60;;;;;;;;;;5061900;28;20876;-77
2023/12/30 10:26:17;;;;;;;25.15;6.25;;;;;;;;;;5061780;28;20040;-77
2023/12/30 10:28:43;;;;;;;20.65;5.78;;;;;;;;;;5061141;28;20032;-77
2023/12/30 10:31:11;;;;;;;28.33;9.15;;;;;;;;;;5060373;28;20424;-77
2023/12/30 10:33:37;;;;;;;21.63;5.55;;;;;;;;;;5050305;28;20030;-77
2023/12/30 10:36:05;;;;;;;11.52;4.18;;;;;;;;;;5020358;28;20052;-76
2023/12/30 10:38:32;;;;;;;11.30;3.88;;;;;;;;;;5037485;28;20036;-76
2023/12/30 10:40:57;;;;;;;9.65;3.65;;;;;;;;;;5039389;28;20049;-77
2023/12/30 10:43:23;;;;;;;11.38;2.67;;;;;;;;;;5040870;28;20037;-76
2023/12/30 10:45:53;;;;;;;8.85;3.15;;;;;;;;;;5037976;28;20421;-76
2023/12/30 10:48:20;;;;;;;14.82;3.72;;;;;;;;;;5032527;28;20119;-76
2023/12/30 10:50:49;;;;;;;15.95;3.30;;;;;;;;;;5040242;28;20041;-76
2023/12/30 10:53:26;;;;;;;12.00;3.20;;;;;;;;;;5041028;28;20525;-76
2023/12/30 10:55:55;;;;;;;10.80;2.92;;;;;;;;;;5041765;28;20552;-76
2023/12/30 10:58:22;;;;;;;10.52;4.05;;;;;;;;;;5042134;28;20545;-78
2023/12/30 11:00:57;;;;;;;5.55;1.90;;;;;;;;;;5041678;28;20033;-77
2023/12/30 11:03:24;;;;;;;8.68;3.10;;;;;;;;;;5040573;28;20040;-76
2023/12/30 11:05:56;;;;;;;9.25;2.80;;;;;;;;;;5041817;28;20029;-76
2023/12/30 11:08:21;;;;;;;8.80;2.90;;;;;;;;;;5044378;28;20067;-79
2023/12/30 11:10:50;;;;;;;8.95;2.60;;;;;;;;;;5050363;28;20044;-77
2023/12/30 11:13:18;;;;;;;8.23;3.03;;;;;;;;;;5043624;28;20101;-77
2023/12/30 11:15:44;;;;;;;7.35;2.78;;;;;;;;;;5042357;28;20112;-77
2023/12/30 11:18:12;;;;;;;10.75;2.47;;;;;;;;;;5040773;28;20112;-77
2023/12/30 11:20:45;;;;;;;10.63;3.15;;;;;;;;;;5034262;28;20033;-75
2023/12/30 11:23:11;;;;;;;11.73;3.63;;;;;;;;;;5031608;28;20041;-77
2023/12/30 11:25:46;;;;;;;9.90;2.20;;;;;;;;;;5030164;28;20049;-77
2023/12/30 11:28:20;;;;;;;9.52;1.95;;;;;;;;;;5033981;28;20117;-77
2023/12/30 11:31:03;;;;;;;6.97;2.30;;;;;;;;;;5038136;28;20126;-79
2023/12/30 11:33:28;;;;;;;6.97;2.75;;;;;;;;;;5039444;28;20029;-74
2023/12/30 11:35:56;;;;;;;9.48;2.75;;;;;;;;;;5041030;28;20061;-76
2023/12/30 11:38:22;;;;;;;5.82;2.35;;;;;;;;;;5040457;28;20153;-76
2023/12/30 11:40:51;;;;;;;9.90;2.95;;;;;;;;;;5039548;28;20073;-76
2023/12/30 11:43:18;;;;;;;11.88;2.80;;;;;;;;;;5040436;28;20076;-76
2023/12/30 11:45:44;;;;;;;5.43;2.65;;;;;;;;;;5037503;28;20040;-76
2023/12/30 11:48:09;;;;;;;12.65;2.70;;;;;;;;;;5038690;28;20029;-75
2023/12/30 11:50:34;;;;;;;9.73;2.22;;;;;;;;;;5037757;28;20037;-76
2023/12/30 11:53:01;;;;;;;7.72;1.55;;;;;;;;;;5038111;28;20049;-76
2023/12/30 11:55:27;;;;;;;8.10;2.55;;;;;;;;;;5038437;28;20175;-76
2023/12/30 11:57:54;;;;;;;6.97;2.20;;;;;;;;;;5040770;28;20133;-76
2023/12/30 12:00:20;;;;;;;14.73;3.95;;;;;;;;;;5040500;28;20040;-76
2023/12/30 12:02:46;;;;;;;6.03;2.10;;;;;;;;;;5039504;28;20128;-76
2023/12/30 12:05:12;;;;;;;7.65;2.72;;;;;;;;;;5039955;28;21249;-76
2023/12/30 12:07:37;;;;;;;3.80;1.52;;;;;;;;;;5038424;28;20041;-76
2023/12/30 12:10:03;;;;;;;7.35;2.00;;;;;;;;;;5040088;28;20086;-76
2023/12/30 12:12:36;;;;;;;6.72;1.70;;;;;;;;;;5037478;28;20029;-76
2023/12/30 12:15:03;;;;;;;5.45;1.60;;;;;;;;;;5037658;28;20035;-76
2023/12/30 12:17:29;;;;;;;2.53;1.23;;;;;;;;;;5042630;28;20047;-76
2023/12/30 12:19:55;;;;;;;7.82;1.20;;;;;;;;;;5043809;28;20049;-76
2023/12/30 12:22:21;;;;;;;10.05;1.77;;;;;;;;;;5044413;28;20528;-76
2023/12/30 12:24:47;;;;;;;5.70;1.40;;;;;;;;;;5034560;28;20037;-77
2023/12/30 12:27:21;;;;;;;4.78;1.55;;;;;;;;;;5037204;28;20040;-77
2023/12/30 12:29:51;;;;;;;4.53;0.88;;;;;;;;;;5060025;28;20073;-76
2023/12/30 12:32:20;;;;;;;6.60;1.85;;;;;;;;;;5044764;28;20048;-76
2023/12/30 12:34:49;;;;;;;2.15;0.85;;;;;;;;;;5028092;28;20041;-76
2023/12/30 12:37:18;;;;;;;1.35;0.80;;;;;;;;;;5031259;28;20473;-76
2023/12/30 12:39:45;;;;;;;4.70;1.42;;;;;;;;;;5044788;28;20076;-76
2023/12/30 12:42:11;;;;;;;8.05;1.13;;;;;;;;;;5045724;28;20029;-76
2023/12/30 12:44:38;;;;;;;5.65;1.02;;;;;;;;;;5044993;28;20045;-76
2023/12/30 12:47:03;;;;;;;6.57;1.48;;;;;;;;;;5044683;28;20071;-76
2023/12/30 12:49:29;;;;;;;2.67;0.90;;;;;;;;;;5043383;28;20072;-76
2023/12/30 12:51:54;;;;;;;4.90;1.08;;;;;;;;;;5044579;28;20037;-76
2023/12/30 12:54:19;;;;;;;4.57;1.55;;;;;;;;;;5045122;28;20417;-76
2023/12/30 12:56:45;;;;;;;2.17;1.02;;;;;;;;;;5043886;28;20040;-76
2023/12/30 12:59:10;;;;;;;5.70;1.83;;;;;;;;;;5043311;28;20048;-76
2023/12/30 13:01:37;;;;;;;5.20;1.25;;;;;;;;;;5044142;28;20120;-76
2023/12/30 13:04:03;;;;;;;3.70;1.50;;;;;;;;;;5044556;28;20060;-76
2023/12/30 13:06:29;;;;;;;8.10;1.75;;;;;;;;;;5044215;28;20040;-76
2023/12/30 13:08:56;;;;;;;4.93;1.90;;;;;;;;;;5044939;28;20025;-76
2023/12/30 13:11:32;;;;;;;3.30;0.90;;;;;;;;;;5044368;28;20033;-77
2023/12/30 13:14:00;;;;;;;3.38;0.90;;;;;;;;;;5043982;28;20037;-77
2023/12/30 13:16:26;;;;;;;4.88;1.17;;;;;;;;;;5044363;28;20888;-77
2023/12/30 13:18:52;;;;;;;4.57;1.23;;;;;;;;;;5042902;28;20124;-77
2023/12/30 13:21:18;;;;;;;7.28;1.00;;;;;;;;;;5044574;28;20060;-76
2023/12/30 13:23:44;;;;;;;3.28;0.70;;;;;;;;;;5038093;28;20189;-77
2023/12/30 13:26:11;;;;;;;3.25;0.88;;;;;;;;;;5041428;28;20037;-77
2023/12/30 13:28:38;;;;;;;2.58;0.90;;;;;;;;;;5042422;28;20048;-77
2023/12/30 13:31:04;;;;;;;0.88;0.63;;;;;;;;;;5043149;28;20033;-77
2023/12/30 13:33:29;;;;;;;4.05;0.70;;;;;;;;;;5043965;28;20021;-77
2023/12/30 13:35:56;;;;;;;2.33;0.75;;;;;;;;;;5044431;28;20045;-77
2023/12/30 13:38:23;;;;;;;4.50;1.05;;;;;;;;;;5042469;28;20045;-77
2023/12/30 13:41:00;;;;;;;1.75;0.80;;;;;;;;;;5044292;28;20048;-77
2023/12/30 13:43:26;;;;;;;5.43;1.15;;;;;;;;;;5044273;28;20040;-77
2023/12/30 13:45:56;;;;;;;2.05;0.80;;;;;;;;;;5043896;28;20033;-80
2023/12/30 13:51:06;;;;;;;3.53;0.63;;;;;;;;;;5037958;28;20067;-77
2023/12/30 13:53:31;;;;;;;4.60;1.33;;;;;;;;;;5032209;28;20128;-76
2023/12/30 13:56:03;;;;;;;7.88;2.60;;;;;;;;;;5037452;28;20048;-76
2023/12/30 13:58:28;;;;;;;12.68;3.42;;;;;;;;;;5026527;28;20035;-76
2023/12/30 14:00:55;;;;;;;12.65;4.03;;;;;;;;;;5043887;28;20118;-76
2023/12/30 14:03:21;;;;;;;7.35;2.63;;;;;;;;;;5041903;28;20040;-76
2023/12/30 14:05:47;;;;;;;17.63;4.88;;;;;;;;;;5041345;28;20114;-76
2023/12/30 14:08:36;;;;;;;17.20;3.30;;;;;;;;;;5041905;28;20045;-76
2023/12/30 14:11:07;;;;;;;22.00;6.25;;;;;;;;;;5038281;28;20037;-76
2023/12/30 14:13:33;;;;;;;11.20;2.70;;;;;;;;;;5022853;28;20042;-76
2023/12/30 14:15:58;;;;;;;8.32;2.70;;;;;;;;;;5023744;28;20040;-76
2023/12/30 14:18:23;;;;;;;8.52;2.35;;;;;;;;;;5023653;28;20029;-77
2023/12/30 14:20:49;;;;;;;6.15;2.00;;;;;;;;;;5024277;28;20039;-76
2023/12/30 14:23:14;;;;;;;6.47;2.47;;;;;;;;;;5022731;28;20029;-76
2023/12/30 14:25:41;;;;;;;6.55;2.55;;;;;;;;;;5039047;28;20399;-76
2023/12/30 14:28:07;;;;;;;11.45;3.78;;;;;;;;;;5028485;28;20053;-76
2023/12/30 14:30:34;;;;;;;3.33;1.55;;;;;;;;;;5041690;28;20040;-76